createdAt,value
2019-03-30T00:03:48.424Z,7.15
2019-03-30T00:07:57.270Z,7.95
2019-03-30T00:12:05.761Z,7.70
2019-03-30T00:16:11.998Z,7.80
2019-03-30T00:20:18.421Z,7.85
2019-03-30T00:24:25.315Z,7.75
2019-03-30T00:28:33.226Z,7.90
2019-03-30T00:32:39.563Z,7.80
2019-03-30T00:36:46.487Z,7.87
2019-03-30T00:40:52.733Z,7.72
2019-03-30T00:44:59.047Z,7.92
2019-03-30T00:49:06.142Z,7.72
2019-03-30T00:53:14.921Z,7.67
2019-03-30T00:57:21.475Z,8.00
2019-03-30T01:01:28.212Z,7.70
2019-03-30T01:05:36.757Z,8.53
2019-03-30T01:09:43.016Z,7.75
2019-03-30T01:13:51.567Z,8.35
2019-03-30T01:17:57.854Z,7.40
2019-03-30T01:22:04.130Z,8.28
2019-03-30T01:26:10.366Z,8.10
2019-03-30T01:30:22.926Z,8.00
2019-03-30T01:34:24.684Z,8.23
2019-03-30T01:38:31.658Z,7.45
2019-03-30T01:42:38.030Z,7.20
2019-03-30T01:46:44.569Z,7.85
2019-03-30T01:50:51.490Z,8.30
2019-03-30T01:54:57.843Z,7.80
2019-03-30T01:59:06.472Z,7.62
2019-03-30T02:03:12.923Z,8.25
2019-03-30T02:07:19.327Z,7.97
2019-03-30T02:11:25.766Z,8.20
2019-03-30T02:15:32.276Z,7.67
2019-03-30T02:19:40.698Z,7.40
2019-03-30T02:23:47.275Z,7.58
2019-03-30T02:27:53.561Z,7.78
2019-03-30T02:32:00.184Z,7.72
2019-03-30T02:36:11.179Z,7.97
2019-03-30T02:40:17.667Z,7.53
2019-03-30T02:44:25.861Z,7.47
2019-03-30T02:48:32.150Z,7.60
2019-03-30T02:52:38.423Z,7.47
2019-03-30T02:56:47.283Z,7.47
2019-03-30T03:00:57.081Z,7.13
2019-03-30T03:05:03.583Z,7.30
2019-03-30T03:09:10.699Z,7.35
2019-03-30T03:13:17.065Z,7.28
2019-03-30T03:17:24.522Z,7.53
2019-03-30T03:21:31.088Z,7.25
2019-03-30T03:25:38.750Z,6.87
2019-03-30T03:29:46.382Z,7.20
2019-03-30T03:33:52.604Z,7.25
2019-03-30T03:37:59.068Z,6.80
2019-03-30T03:42:05.406Z,6.90
2019-03-30T03:46:14.182Z,7.37
2019-03-30T03:50:51.599Z,7.17
2019-03-30T03:54:57.905Z,7.40
2019-03-30T03:59:05.207Z,7.08
2019-03-30T04:03:12.285Z,6.90
2019-03-30T04:07:19.890Z,7.28
2019-03-30T04:11:26.344Z,7.12
2019-03-30T04:15:34.070Z,7.20
2019-03-30T04:19:41.760Z,6.83
2019-03-30T04:23:49.140Z,6.87
2019-03-30T04:27:55.343Z,7.03
2019-03-30T04:32:01.834Z,6.95
2019-03-30T04:36:08.244Z,6.90
2019-03-30T04:40:16.809Z,7.67
2019-03-30T04:44:24.539Z,7.40
2019-03-30T04:48:31.084Z,7.30
2019-03-30T04:52:37.413Z,7.30
2019-03-30T04:56:46.191Z,7.05
2019-03-30T05:00:55.373Z,7.37
2019-03-30T05:05:03.414Z,7.15
2019-03-30T05:09:09.726Z,7.30
2019-03-30T05:13:16.133Z,7.22
2019-03-30T05:17:25.306Z,7.20
2019-03-30T05:21:31.647Z,7.77
2019-03-30T05:25:37.919Z,7.17
2019-03-30T05:29:44.294Z,7.25
2019-03-30T05:33:51.026Z,7.45
2019-03-30T05:37:57.319Z,7.28
2019-03-30T05:42:03.963Z,6.90
2019-03-30T05:46:13.383Z,7.10
2019-03-30T05:50:20.252Z,7.07
2019-03-30T05:54:27.081Z,7.08
2019-03-30T05:58:33.643Z,6.92
2019-03-30T06:02:41.137Z,7.22
2019-03-30T06:06:49.931Z,7.10
2019-03-30T06:10:56.758Z,7.33
2019-03-30T06:15:03.110Z,6.90
2019-03-30T06:19:09.500Z,6.47
2019-03-30T06:23:15.709Z,6.72
2019-03-30T06:27:21.995Z,18.60
2019-03-30T06:31:28.924Z,7.15
2019-03-30T06:35:35.184Z,14.85
2019-03-30T06:39:41.893Z,7.12
2019-03-30T06:43:48.137Z,10.98
2019-03-30T06:47:54.671Z,6.97
2019-03-30T06:52:02.554Z,19.40
2019-03-30T06:56:10.926Z,20.57
2019-03-30T07:00:17.766Z,6.90
2019-03-30T07:04:24.099Z,11.57
2019-03-30T07:08:30.767Z,10.23
2019-03-30T07:12:42.075Z,21.10
2019-03-30T07:16:48.283Z,8.15
2019-03-30T07:20:55.986Z,20.43
2019-03-30T07:25:03.585Z,9.03
2019-03-30T07:29:10.879Z,13.88
2019-03-30T07:33:18.480Z,19.30
2019-03-30T07:37:25.070Z,14.75
2019-03-30T07:41:33.734Z,17.77
2019-03-30T07:45:40.641Z,23.92
2019-03-30T07:49:46.879Z,26.00
2019-03-30T07:53:53.129Z,15.28
2019-03-30T07:58:00.884Z,19.52
2019-03-30T08:02:07.156Z,23.83
2019-03-30T08:06:13.599Z,23.32
2019-03-30T08:10:20.348Z,22.98
2019-03-30T08:14:26.657Z,26.23
2019-03-30T08:18:32.904Z,24.87
2019-03-30T08:22:39.333Z,24.23
2019-03-30T08:26:46.629Z,20.17
2019-03-30T08:30:52.788Z,23.25
2019-03-30T08:34:59.162Z,21.55
2019-03-30T08:39:06.843Z,20.25
2019-03-30T08:43:15.058Z,20.08
2019-03-30T08:47:21.438Z,17.90
2019-03-30T08:51:29.326Z,20.30
2019-03-30T08:55:35.683Z,19.52
2019-03-30T08:59:42.911Z,22.17
2019-03-30T09:03:50.391Z,16.57
2019-03-30T09:07:56.871Z,19.50
2019-03-30T09:12:03.353Z,21.75
2019-03-30T09:16:09.715Z,15.25
2019-03-30T09:20:15.986Z,19.67
2019-03-30T09:24:23.455Z,16.82
2019-03-30T09:28:30.754Z,16.27
2019-03-30T09:32:38.060Z,15.72
2019-03-30T09:36:44.722Z,19.55
2019-03-30T09:40:51.323Z,19.35
2019-03-30T09:44:57.700Z,15.95
2019-03-30T09:49:04.515Z,20.43
2019-03-30T09:53:11.017Z,14.45
2019-03-30T09:57:17.293Z,14.07
2019-03-30T10:01:23.553Z,16.52
2019-03-30T10:05:30.185Z,15.72
2019-03-30T10:09:36.353Z,16.67
2019-03-30T10:13:42.649Z,13.18
2019-03-30T10:17:48.884Z,12.55
2019-03-30T10:21:55.459Z,13.25
2019-03-30T10:26:01.665Z,14.30
2019-03-30T10:30:08.221Z,17.07
2019-03-30T10:34:14.485Z,11.95
2019-03-30T10:38:22.553Z,11.15
2019-03-30T10:42:28.814Z,17.35
2019-03-30T10:46:35.289Z,18.25
2019-03-30T10:50:41.749Z,12.10
2019-03-30T10:54:52.889Z,13.55
2019-03-30T10:58:56.074Z,13.50
2019-03-30T11:03:03.145Z,12.13
2019-03-30T11:07:09.583Z,11.30
2019-03-30T11:11:15.894Z,12.03
2019-03-30T11:15:23.974Z,14.83
2019-03-30T11:19:30.581Z,11.50
2019-03-30T11:23:36.913Z,11.33
2019-03-30T11:27:44.787Z,11.43
2019-03-30T11:31:51.240Z,11.68
2019-03-30T11:35:59.088Z,13.40
2019-03-30T11:40:07.785Z,9.15
2019-03-30T11:44:16.145Z,11.08
2019-03-30T11:48:22.397Z,8.85
2019-03-30T11:52:31.477Z,8.30
2019-03-30T11:56:42.235Z,9.03
2019-03-30T12:00:51.314Z,7.20
2019-03-30T12:04:57.607Z,15.80
2019-03-30T12:09:06.214Z,9.35
2019-03-30T12:13:21.390Z,7.78
2019-03-30T12:17:32.074Z,14.78
2019-03-30T12:21:49.482Z,10.08
2019-03-30T12:26:22.284Z,7.05
2019-03-30T12:39:51.775Z,6.35
2019-03-30T12:43:58.424Z,6.17
2019-03-30T12:48:15.387Z,10.05
2019-03-30T13:01:41.705Z,7.28
2019-03-30T13:05:52.685Z,6.58
2019-03-30T13:10:00.624Z,8.18
2019-03-30T13:14:26.104Z,5.92
2019-03-30T13:18:33.044Z,9.93
2019-03-30T13:22:43.061Z,8.90
2019-03-30T13:26:51.923Z,9.35
2019-03-30T13:30:59.778Z,7.72
2019-03-30T13:35:10.632Z,8.53
2019-03-30T13:39:19.949Z,6.77
2019-03-30T13:43:34.085Z,8.75
2019-03-30T13:47:41.474Z,7.08
2019-03-30T13:51:48.432Z,10.38
2019-03-30T13:55:56.625Z,6.15
2019-03-30T14:00:08.454Z,4.90
2019-03-30T14:04:13.353Z,6.85
2019-03-30T14:08:24.211Z,11.55
2019-03-30T14:12:33.347Z,9.88
2019-03-30T14:21:07.029Z,4.25
2019-03-30T14:40:02.496Z,8.10
2019-03-30T14:44:08.894Z,6.22
2019-03-30T14:48:15.262Z,6.53
2019-03-30T14:52:21.563Z,6.50
2019-03-30T14:56:27.819Z,5.50
2019-03-30T15:00:37.261Z,5.87
2019-03-30T15:04:46.709Z,6.58
2019-03-30T15:08:54.054Z,6.05
2019-03-30T15:13:01.381Z,4.70
2019-03-30T15:17:07.957Z,4.45
2019-03-30T15:21:14.719Z,6.03
2019-03-30T15:25:21.931Z,4.75
2019-03-30T15:29:30.176Z,4.87
2019-03-30T15:33:37.105Z,5.10
2019-03-30T15:37:44.860Z,7.17
2019-03-30T15:41:51.208Z,3.98
2019-03-30T15:45:57.533Z,4.35
2019-03-30T15:50:03.976Z,4.00
2019-03-30T15:54:10.258Z,9.18
2019-03-30T15:58:18.511Z,4.40
2019-03-30T16:02:24.786Z,5.28
2019-03-30T16:06:31.053Z,6.28
2019-03-30T16:10:40.525Z,7.73
2019-03-30T16:14:49.760Z,7.10
2019-03-30T16:18:56.087Z,6.63
2019-03-30T16:23:06.430Z,5.45
2019-03-30T16:27:13.104Z,5.90
2019-03-30T16:31:19.824Z,7.08
2019-03-30T16:35:28.025Z,5.15
2019-03-30T16:39:45.785Z,4.78
2019-03-30T16:43:52.625Z,6.90
2019-03-30T16:48:00.145Z,4.90
2019-03-30T16:52:06.343Z,5.10
2019-03-30T16:56:12.522Z,4.78
2019-03-30T17:00:18.706Z,6.22
2019-03-30T17:04:38.987Z,5.78
2019-03-30T17:08:49.450Z,5.35
2019-03-30T17:12:57.138Z,5.20
2019-03-30T17:17:05.933Z,4.60
2019-03-30T17:21:14.299Z,4.40
2019-03-30T17:25:21.368Z,7.35
2019-03-30T17:29:32.049Z,4.12
2019-03-30T17:33:38.546Z,5.50
2019-03-30T17:37:44.868Z,4.20
2019-03-30T17:41:52.421Z,4.15
2019-03-30T17:46:00.547Z,4.40
2019-03-30T17:50:15.878Z,4.37
2019-03-30T17:54:22.732Z,8.98
2019-03-30T17:58:30.622Z,8.38
2019-03-30T18:02:36.829Z,8.30
2019-03-30T18:06:45.029Z,8.70
2019-03-30T18:10:51.573Z,7.78
2019-03-30T18:14:57.800Z,8.48
2019-03-30T18:19:04.735Z,8.20
2019-03-30T18:23:10.964Z,7.70
2019-03-30T18:27:17.204Z,7.62
2019-03-30T18:31:24.172Z,7.72
2019-03-30T18:35:30.580Z,7.50
2019-03-30T18:39:36.998Z,7.28
2019-03-30T18:43:43.301Z,7.40
2019-03-30T18:47:51.597Z,7.00
2019-03-30T18:51:57.857Z,7.28
2019-03-30T18:56:04.239Z,7.35
2019-03-30T19:00:13.117Z,7.15
2019-03-30T19:04:23.081Z,7.20
2019-03-30T19:08:29.862Z,7.33
2019-03-30T19:12:36.195Z,7.22
2019-03-30T19:16:42.391Z,7.03
2019-03-30T19:20:49.002Z,6.87
2019-03-30T19:24:55.258Z,6.72
2019-03-30T19:29:01.797Z,6.80
2019-03-30T19:33:08.736Z,7.45
2019-03-30T19:37:15.482Z,7.05
2019-03-30T19:41:23.169Z,6.72
2019-03-30T19:45:30.129Z,7.20
2019-03-30T19:49:36.554Z,7.37
2019-03-30T19:53:43.664Z,7.60
2019-03-30T19:57:50.462Z,7.22
2019-03-30T20:01:57.068Z,7.75
2019-03-30T20:06:06.106Z,7.58
2019-03-30T20:10:12.588Z,7.67
2019-03-30T20:14:18.816Z,7.80
2019-03-30T20:18:25.324Z,7.60
2019-03-30T20:22:32.125Z,7.85
2019-03-30T20:26:38.544Z,7.60
2019-03-30T20:30:45.323Z,7.22
2019-03-30T20:34:52.247Z,8.05
2019-03-30T20:38:59.539Z,7.25
2019-03-30T20:43:07.501Z,7.47
2019-03-30T20:47:16.107Z,7.85
2019-03-30T20:51:23.464Z,7.30
2019-03-30T20:55:33.781Z,7.62
2019-03-30T20:59:40.109Z,7.35
2019-03-30T21:03:49.027Z,7.78
2019-03-30T21:07:56.962Z,7.45
2019-03-30T21:12:03.775Z,7.25
2019-03-30T21:16:10.781Z,7.60
2019-03-30T21:20:20.419Z,7.58
2019-03-30T21:24:30.953Z,6.90
2019-03-30T21:28:38.363Z,7.20
2019-03-30T21:32:44.744Z,6.92
2019-03-30T21:36:51.072Z,7.62
2019-03-30T21:40:57.368Z,6.95
2019-03-30T21:45:03.729Z,6.55
2019-03-30T21:49:10.033Z,6.85
2019-03-30T21:53:16.973Z,7.15
2019-03-30T21:57:23.931Z,7.08
2019-03-30T22:01:31.250Z,6.90
2019-03-30T22:05:37.575Z,6.97
2019-03-30T22:09:44.034Z,7.10
2019-03-30T22:13:50.843Z,6.87
2019-03-30T22:17:57.348Z,7.12
2019-03-30T22:22:03.689Z,6.50
2019-03-30T22:26:10.324Z,6.80
2019-03-30T22:30:24.856Z,7.20
2019-03-30T22:34:24.475Z,6.72
2019-03-30T22:38:30.770Z,6.92
2019-03-30T22:42:37.093Z,6.83
2019-03-30T22:46:43.574Z,6.75
2019-03-30T22:50:50.932Z,6.70
2019-03-30T22:54:58.086Z,6.28
2019-03-30T22:59:04.624Z,6.45
2019-03-30T23:03:11.920Z,7.15
2019-03-30T23:07:19.867Z,7.37
2019-03-30T23:11:26.133Z,6.03
2019-03-30T23:15:32.820Z,6.37
2019-03-30T23:19:40.827Z,6.90
2019-03-30T23:23:47.060Z,7.55
2019-03-30T23:27:55.853Z,6.72
2019-03-30T23:32:03.375Z,6.72
2019-03-30T23:36:11.073Z,6.75
2019-03-30T23:40:17.306Z,6.80
2019-03-30T23:44:23.604Z,6.92
2019-03-30T23:48:31.162Z,7.22
2019-03-30T23:52:37.646Z,6.97
2019-03-30T23:56:44.107Z,6.20
